Time;durP1;ratioP1;P1;durP2;ratioP2;P2;SDS_P1;SDS_P2;PMS_P1;PMS_P2;Temp;Humidity;BMP_temperature;BMP_pressure;BME280_temperature;BME280_humidity;BME280_pressure;Samples;Min_cycle;Max_cycle;Signal;HPM_P1;HPM_P2
2022/01/24 00:00:17;;;;;;;520.43;185.53;;;;;;;;;;6215882;23;20180;-73
2022/01/24 00:03:03;;;;;;;406.47;92.60;;;;;;;;;;6193924;23;20252;-72
2022/01/24 00:05:31;;;;;;;164.77;43.70;;;;;;;;;;6215715;23;20184;-73
2022/01/24 00:07:58;;;;;;;260.17;63.33;;;;;;;;;;6189451;23;20184;-73
2022/01/24 00:10:27;;;;;;;177.63;49.07;;;;;;;;;;6215828;23;20180;-72
2022/01/24 00:18:11;;;;;;;106.77;29.50;;;;;;;;;;6227495;23;20254;-73
2022/01/24 00:28:40;;;;;;;485.67;100.73;;;;;;;;;;6217616;23;20218;-73
2022/01/24 00:31:08;;;;;;;495.07;95.83;;;;;;;;;;6217163;23;20337;-73
2022/01/24 00:33:35;;;;;;;350.57;71.40;;;;;;;;;;6217668;23;20195;-72
2022/01/24 00:36:02;;;;;;;283.73;63.03;;;;;;;;;;6217504;23;20180;-73
2022/01/24 00:38:32;;;;;;;206.07;49.33;;;;;;;;;;6217457;23;20215;-72
2022/01/24 00:40:59;;;;;;;454.10;256.60;;;;;;;;;;6217205;23;20508;-72
2022/01/24 00:43:35;;;;;;;93.50;49.13;;;;;;;;;;6217530;23;20180;-72
2022/01/24 00:46:08;;;;;;;46.00;24.20;;;;;;;;;;6227308;23;20476;-72
2022/01/24 00:49:08;;;;;;;87.07;31.10;;;;;;;;;;6217555;23;20172;-70
2022/01/24 00:56:45;;;;;;;231.33;54.07;;;;;;;;;;6194169;23;20508;-73
2022/01/24 00:59:12;;;;;;;224.87;54.70;;;;;;;;;;6217328;23;20184;-72
2022/01/24 01:01:39;;;;;;;273.50;62.27;;;;;;;;;;6217301;23;20694;-73
2022/01/24 01:04:07;;;;;;;317.67;94.80;;;;;;;;;;6217115;23;20180;-73
2022/01/24 01:06:34;;;;;;;219.90;63.63;;;;;;;;;;6217186;23;20180;-72
2022/01/24 01:19:46;;;;;;;49.63;24.27;;;;;;;;;;6217244;23;20226;-73
2022/01/24 01:22:13;;;;;;;44.53;21.60;;;;;;;;;;6216765;23;20604;-73
2022/01/24 01:24:48;;;;;;;42.13;20.53;;;;;;;;;;6216835;23;20187;-73
2022/01/24 01:27:20;;;;;;;46.20;22.03;;;;;;;;;;6217154;23;20168;-72
2022/01/24 01:29:55;;;;;;;47.47;21.43;;;;;;;;;;6216920;23;20204;-73
2022/01/24 01:56:29;;;;;;;172.40;47.93;;;;;;;;;;6226671;23;20547;-72
2022/01/24 01:58:56;;;;;;;194.83;51.53;;;;;;;;;;6216643;23;20274;-72
2022/01/24 02:01:23;;;;;;;403.07;87.47;;;;;;;;;;6216858;23;20187;-73
2022/01/24 02:03:54;;;;;;;561.93;126.83;;;;;;;;;;6216483;23;20635;-73
2022/01/24 02:06:23;;;;;;;511.77;150.07;;;;;;;;;;6216832;23;20168;-73
2022/01/24 02:09:01;;;;;;;301.13;84.03;;;;;;;;;;6190318;23;20259;-73
2022/01/24 02:11:29;;;;;;;197.53;64.70;;;;;;;;;;6226375;23;20503;-72
2022/01/24 02:14:01;;;;;;;237.23;65.33;;;;;;;;;;6216621;23;20195;-72
2022/01/24 02:21:44;;;;;;;88.63;31.97;;;;;;;;;;6226357;23;20196;-73
2022/01/24 02:24:13;;;;;;;168.33;42.00;;;;;;;;;;6216546;23;20188;-73
2022/01/24 02:26:41;;;;;;;195.53;56.73;;;;;;;;;;6216482;23;20222;-73
2022/01/24 02:29:17;;;;;;;621.80;129.73;;;;;;;;;;6216435;23;20227;-73
2022/01/24 02:31:47;;;;;;;525.83;110.30;;;;;;;;;;6216432;23;20632;-73
2022/01/24 02:34:40;;;;;;;205.17;50.57;;;;;;;;;;6216450;23;20168;-73
2022/01/24 02:37:11;;;;;;;106.37;34.27;;;;;;;;;;6216054;23;20192;-71
2022/01/24 02:53:15;;;;;;;81.63;26.67;;;;;;;;;;6226123;23;20192;-74
2022/01/24 02:55:45;;;;;;;102.60;32.00;;;;;;;;;;6190092;23;20231;-74
2022/01/24 02:58:13;;;;;;;51.57;22.33;;;;;;;;;;6216133;23;20204;-74
2022/01/24 03:00:40;;;;;;;71.33;26.57;;;;;;;;;;6215916;23;20657;-74
2022/01/24 03:03:08;;;;;;;523.67;109.13;;;;;;;;;;6216167;23;20259;-73
2022/01/24 03:05:36;;;;;;;271.63;59.77;;;;;;;;;;6216279;23;20295;-73
2022/01/24 03:08:05;;;;;;;525.20;221.80;;;;;;;;;;6216123;23;20172;-73
2022/01/24 03:10:40;;;;;;;488.57;110.20;;;;;;;;;;6189959;23;20651;-74
2022/01/24 03:15:49;;;;;;;381.07;77.03;;;;;;;;;;6216196;23;20168;-74
2022/01/24 03:18:18;;;;;;;415.93;87.63;;;;;;;;;;6216039;23;20196;-73
2022/01/24 03:20:45;;;;;;;254.77;57.33;;;;;;;;;;6216104;23;20182;-73
2022/01/24 03:23:14;;;;;;;235.77;51.90;;;;;;;;;;6215971;23;20180;-73
2022/01/24 03:25:42;;;;;;;304.97;65.03;;;;;;;;;;6216015;23;20255;-74
2022/01/24 03:28:11;;;;;;;826.07;241.03;;;;;;;;;;6215949;23;20685;-74
2022/01/24 03:30:38;;;;;;;864.47;286.60;;;;;;;;;;6215550;23;20286;-74
2022/01/24 03:33:07;;;;;;;647.80;201.57;;;;;;;;;;6216055;23;20551;-75
2022/01/24 03:35:35;;;;;;;619.77;148.47;;;;;;;;;;6216003;23;20180;-74
2022/01/24 03:38:03;;;;;;;422.00;98.57;;;;;;;;;;6215955;23;20250;-74
2022/01/24 03:40:30;;;;;;;323.10;79.93;;;;;;;;;;6216094;23;20250;-74
2022/01/24 03:42:59;;;;;;;396.13;81.00;;;;;;;;;;6215885;23;20612;-74
2022/01/24 03:48:12;;;;;;;120.63;34.50;;;;;;;;;;6217613;23;20172;-74
2022/01/24 03:50:40;;;;;;;100.17;31.90;;;;;;;;;;6218006;23;20168;-74
2022/01/24 03:53:07;;;;;;;150.20;38.03;;;;;;;;;;6217417;23;20634;-74
2022/01/24 03:55:35;;;;;;;54.03;22.50;;;;;;;;;;6217943;23;20504;-73
2022/01/24 03:58:02;;;;;;;47.87;20.97;;;;;;;;;;6217905;23;20199;-74
2022/01/24 04:00:29;;;;;;;437.43;92.67;;;;;;;;;;6217624;23;20226;-74
2022/01/24 04:02:57;;;;;;;520.43;111.57;;;;;;;;;;6217686;23;20267;-74
2022/01/24 04:05:25;;;;;;;183.23;45.23;;;;;;;;;;6217883;23;20184;-74
2022/01/24 04:07:52;;;;;;;185.50;42.83;;;;;;;;;;6217509;23;20560;-74
2022/01/24 04:10:23;;;;;;;379.53;157.37;;;;;;;;;;6217779;23;20169;-74
2022/01/24 04:12:52;;;;;;;403.47;108.50;;;;;;;;;;6217682;23;20646;-74
2022/01/24 04:18:10;;;;;;;231.03;54.03;;;;;;;;;;6217500;23;20200;-74
2022/01/24 04:23:20;;;;;;;107.03;33.13;;;;;;;;;;6217748;23;20168;-74
2022/01/24 04:25:47;;;;;;;166.50;38.87;;;;;;;;;;6217628;23;20180;-74
2022/01/24 04:28:15;;;;;;;231.93;48.60;;;;;;;;;;6217726;23;20258;-74
2022/01/24 04:30:42;;;;;;;599.50;152.43;;;;;;;;;;6191289;23;20208;-73
2022/01/24 04:33:10;;;;;;;444.90;126.67;;;;;;;;;;6217479;23;20184;-73
2022/01/24 04:35:37;;;;;;;288.33;75.50;;;;;;;;;;6217667;23;20251;-72
2022/01/24 04:38:04;;;;;;;222.27;55.77;;;;;;;;;;6217490;23;20200;-73
2022/01/24 04:40:32;;;;;;;263.63;62.23;;;;;;;;;;6217510;23;20180;-73
2022/01/24 04:43:20;;;;;;;195.30;46.40;;;;;;;;;;6217373;23;20180;-73
2022/01/24 04:56:38;;;;;;;229.27;65.47;;;;;;;;;;6217601;23;20175;-73
2022/01/24 04:59:06;;;;;;;333.47;76.23;;;;;;;;;;6226940;23;20192;-73
2022/01/24 05:01:34;;;;;;;287.10;65.40;;;;;;;;;;6217367;23;20180;-74
2022/01/24 05:04:02;;;;;;;250.03;58.93;;;;;;;;;;6217192;23;20180;-70
2022/01/24 05:06:29;;;;;;;243.63;59.97;;;;;;;;;;6213715;23;20190;-71
2022/01/24 05:08:57;;;;;;;195.73;50.47;;;;;;;;;;6216696;23;20256;-71
2022/01/24 05:11:36;;;;;;;194.00;48.60;;;;;;;;;;6215672;23;20476;-72
2022/01/24 05:24:37;;;;;;;233.83;57.03;;;;;;;;;;6216249;23;20540;-72
2022/01/24 05:27:05;;;;;;;323.87;66.77;;;;;;;;;;6216616;23;20208;-70
2022/01/24 05:29:36;;;;;;;275.83;56.80;;;;;;;;;;6216395;23;20506;-72
2022/01/24 05:32:05;;;;;;;371.10;178.60;;;;;;;;;;6216615;23;20180;-72
2022/01/24 05:34:32;;;;;;;254.13;99.20;;;;;;;;;;6215732;23;20187;-74
2022/01/24 05:37:00;;;;;;;264.57;73.50;;;;;;;;;;6216041;23;20627;-72
2022/01/24 05:39:27;;;;;;;188.43;55.33;;;;;;;;;;6190093;23;20204;-70
2022/01/24 05:41:55;;;;;;;136.93;48.43;;;;;;;;;;6216170;23;20180;-69
2022/01/24 05:44:22;;;;;;;200.77;60.97;;;;;;;;;;6216330;23;20595;-77
2022/01/24 05:46:49;;;;;;;176.40;54.90;;;;;;;;;;6216261;23;20203;-78
2022/01/24 05:49:16;;;;;;;179.60;48.57;;;;;;;;;;6216052;23;20646;-72
2022/01/24 05:51:44;;;;;;;364.93;75.77;;;;;;;;;;6216048;23;20237;-71
2022/01/24 05:54:11;;;;;;;482.77;141.30;;;;;;;;;;6216162;23;20180;-70
2022/01/24 05:56:38;;;;;;;329.90;83.43;;;;;;;;;;6216624;23;20264;-72
2022/01/24 05:59:06;;;;;;;199.33;52.17;;;;;;;;;;6216262;23;20208;-71
2022/01/24 06:01:33;;;;;;;155.90;41.73;;;;;;;;;;6216396;23;20180;-71
2022/01/24 06:04:00;;;;;;;156.60;44.23;;;;;;;;;;6216159;23;20184;-75
2022/01/24 06:06:28;;;;;;;231.87;57.43;;;;;;;;;;6215835;23;20180;-74
2022/01/24 06:08:55;;;;;;;217.10;51.27;;;;;;;;;;6216298;23;20207;-70
2022/01/24 06:11:24;;;;;;;187.20;47.63;;;;;;;;;;6215788;23;20181;-69
2022/01/24 06:13:52;;;;;;;186.73;54.60;;;;;;;;;;6216055;23;20176;-69
2022/01/24 06:16:19;;;;;;;220.17;65.50;;;;;;;;;;6215687;23;20180;-70
2022/01/24 06:18:46;;;;;;;114.40;41.63;;;;;;;;;;6216338;23;20214;-68
2022/01/24 06:21:15;;;;;;;83.07;32.70;;;;;;;;;;6216303;23;20206;-70
2022/01/24 06:23:42;;;;;;;87.90;34.50;;;;;;;;;;6216256;23;20532;-72
2022/01/24 06:26:10;;;;;;;112.87;38.03;;;;;;;;;;6216223;23;20180;-69
2022/01/24 06:28:37;;;;;;;131.73;43.23;;;;;;;;;;6216155;23;20509;-69
2022/01/24 06:31:04;;;;;;;87.90;32.13;;;;;;;;;;6215963;23;20262;-69
2022/01/24 06:33:32;;;;;;;198.17;51.03;;;;;;;;;;6216186;23;20180;-69
2022/01/24 06:36:00;;;;;;;85.80;32.47;;;;;;;;;;6215878;23;20631;-69
2022/01/24 06:38:29;;;;;;;173.73;47.33;;;;;;;;;;6216116;23;20230;-69
2022/01/24 06:40:56;;;;;;;77.47;30.67;;;;;;;;;;6216213;23;20179;-69
2022/01/24 06:43:24;;;;;;;84.07;31.90;;;;;;;;;;6216148;23;20186;-69
2022/01/24 06:45:51;;;;;;;71.73;29.47;;;;;;;;;;6216309;23;20191;-69
2022/01/24 06:48:19;;;;;;;82.10;31.23;;;;;;;;;;6216400;23;20190;-69
2022/01/24 06:50:46;;;;;;;100.73;37.20;;;;;;;;;;6216291;23;20180;-69
2022/01/24 06:53:13;;;;;;;105.40;36.27;;;;;;;;;;6216140;23;20180;-69
2022/01/24 06:55:41;;;;;;;99.67;34.10;;;;;;;;;;6216628;23;20187;-69
2022/01/24 06:58:09;;;;;;;91.07;32.90;;;;;;;;;;6216211;23;20265;-69
2022/01/24 07:00:36;;;;;;;112.87;38.83;;;;;;;;;;6216177;23;20184;-69
2022/01/24 07:03:04;;;;;;;362.47;83.67;;;;;;;;;;6216174;23;20483;-69
2022/01/24 07:05:31;;;;;;;229.40;61.00;;;;;;;;;;6216050;23;20514;-69
2022/01/24 07:07:59;;;;;;;190.87;49.97;;;;;;;;;;6190013;23;20179;-69
2022/01/24 07:10:30;;;;;;;143.10;38.63;;;;;;;;;;6216124;23;20231;-69
2022/01/24 07:12:58;;;;;;;170.40;41.90;;;;;;;;;;6226099;23;20168;-69
2022/01/24 07:15:32;;;;;;;386.40;118.03;;;;;;;;;;6216034;23;20180;-69
2022/01/24 07:20:42;;;;;;;92.43;33.93;;;;;;;;;;6216101;23;20168;-69
2022/01/24 07:23:10;;;;;;;102.83;33.77;;;;;;;;;;6215844;23;20184;-69
2022/01/24 07:25:42;;;;;;;65.13;24.77;;;;;;;;;;6191051;23;20176;-69
2022/01/24 07:28:10;;;;;;;64.77;29.17;;;;;;;;;;6216012;23;20186;-69
2022/01/24 07:30:37;;;;;;;57.67;26.20;;;;;;;;;;6215492;23;20210;-69
2022/01/24 07:33:04;;;;;;;53.33;24.13;;;;;;;;;;6215659;23;20203;-69
2022/01/24 07:35:32;;;;;;;83.57;28.40;;;;;;;;;;6215962;23;20184;-69
2022/01/24 07:37:59;;;;;;;128.40;44.13;;;;;;;;;;6216035;23;20180;-69
2022/01/24 07:40:27;;;;;;;195.03;46.27;;;;;;;;;;6215906;23;20196;-68
2022/01/24 07:45:51;;;;;;;56.57;23.90;;;;;;;;;;6208627;23;20263;-69
2022/01/24 07:48:19;;;;;;;64.53;25.87;;;;;;;;;;6215825;23;20186;-69
2022/01/24 07:50:47;;;;;;;80.20;25.93;;;;;;;;;;6216127;23;20260;-69
2022/01/24 07:53:16;;;;;;;109.50;31.63;;;;;;;;;;6215586;23;20190;-69
2022/01/24 07:56:04;;;;;;;99.10;30.13;;;;;;;;;;6215889;23;20186;-69
2022/01/24 07:58:32;;;;;;;101.07;64.00;;;;;;;;;;6215873;23;20204;-69
2022/01/24 08:00:59;;;;;;;152.83;51.10;;;;;;;;;;6189687;23;20203;-69
2022/01/24 08:03:26;;;;;;;66.20;26.33;;;;;;;;;;6215967;23;20180;-68
2022/01/24 08:05:54;;;;;;;58.47;24.30;;;;;;;;;;6215859;23;20728;-68
2022/01/24 08:08:22;;;;;;;53.70;24.70;;;;;;;;;;6215935;23;20204;-69
2022/01/24 08:10:49;;;;;;;51.60;23.77;;;;;;;;;;6215603;23;20697;-69
2022/01/24 08:13:16;;;;;;;56.57;25.27;;;;;;;;;;6215787;23;20187;-69
2022/01/24 08:15:43;;;;;;;59.50;25.10;;;;;;;;;;6215790;23;20214;-69
2022/01/24 08:18:11;;;;;;;56.00;23.97;;;;;;;;;;6189627;23;20180;-69
2022/01/24 08:20:39;;;;;;;109.30;43.77;;;;;;;;;;6215788;23;20208;-68
2022/01/24 08:23:11;;;;;;;86.73;27.27;;;;;;;;;;6215815;23;20184;-68
2022/01/24 08:25:39;;;;;;;65.20;28.20;;;;;;;;;;6189540;23;20172;-68
2022/01/24 08:28:06;;;;;;;55.63;25.43;;;;;;;;;;6215511;23;20180;-68
2022/01/24 08:30:33;;;;;;;52.83;24.03;;;;;;;;;;6215125;23;20679;-68
2022/01/24 08:33:01;;;;;;;73.10;27.87;;;;;;;;;;6189630;23;20620;-68
2022/01/24 08:35:28;;;;;;;56.47;23.73;;;;;;;;;;6217376;23;20187;-68
2022/01/24 08:37:55;;;;;;;62.57;25.37;;;;;;;;;;6217250;23;20674;-68
2022/01/24 08:40:25;;;;;;;67.57;26.77;;;;;;;;;;6217482;23;20204;-68
2022/01/24 08:43:04;;;;;;;52.70;25.17;;;;;;;;;;6217646;23;20169;-68
2022/01/24 08:48:21;;;;;;;66.53;27.67;;;;;;;;;;6217280;23;20164;-68
2022/01/24 08:50:52;;;;;;;57.00;25.97;;;;;;;;;;6217399;23;20238;-68
2022/01/24 08:53:30;;;;;;;55.27;24.20;;;;;;;;;;6217710;23;20183;-68
2022/01/24 08:55:59;;;;;;;51.20;24.37;;;;;;;;;;6217746;23;20168;-68
2022/01/24 08:58:28;;;;;;;55.77;25.03;;;;;;;;;;6217365;23;20242;-67
2022/01/24 09:00:55;;;;;;;65.87;26.97;;;;;;;;;;6217420;23;20183;-68
2022/01/24 09:03:25;;;;;;;56.50;26.70;;;;;;;;;;6217730;23;20382;-68
2022/01/24 09:05:53;;;;;;;67.30;25.77;;;;;;;;;;6217054;23;20519;-68
2022/01/24 09:08:22;;;;;;;52.17;24.10;;;;;;;;;;6217199;23;20186;-68
2022/01/24 09:10:51;;;;;;;47.70;23.77;;;;;;;;;;6217281;23;20184;-68
2022/01/24 09:13:19;;;;;;;53.20;23.20;;;;;;;;;;6216860;23;20172;-68
2022/01/24 09:15:46;;;;;;;56.97;24.47;;;;;;;;;;6217131;23;20569;-68
2022/01/24 09:18:13;;;;;;;52.73;23.37;;;;;;;;;;6217060;23;20176;-68
2022/01/24 09:20:41;;;;;;;60.37;25.67;;;;;;;;;;6216946;23;20207;-68
2022/01/24 09:23:09;;;;;;;48.93;24.43;;;;;;;;;;6216829;23;20631;-68
2022/01/24 09:25:37;;;;;;;62.03;27.30;;;;;;;;;;6216944;23;20180;-68
2022/01/24 09:28:04;;;;;;;52.70;25.93;;;;;;;;;;6217104;23;20180;-68
2022/01/24 09:30:31;;;;;;;57.10;25.60;;;;;;;;;;6206839;23;20203;-68
2022/01/24 09:32:59;;;;;;;61.40;27.17;;;;;;;;;;6217142;23;20199;-69
2022/01/24 09:35:30;;;;;;;56.43;25.27;;;;;;;;;;6217194;23;20180;-68
2022/01/24 09:37:57;;;;;;;65.63;28.00;;;;;;;;;;6217256;23;20526;-68
2022/01/24 09:40:25;;;;;;;63.57;27.47;;;;;;;;;;6215490;23;20204;-69
2022/01/24 09:42:53;;;;;;;89.90;31.40;;;;;;;;;;6216892;23;20183;-68
2022/01/24 09:45:21;;;;;;;93.80;35.30;;;;;;;;;;6215009;23;20710;-69
2022/01/24 09:47:49;;;;;;;86.17;31.73;;;;;;;;;;6215513;23;20181;-69
2022/01/24 09:50:18;;;;;;;58.43;26.23;;;;;;;;;;6216615;23;20259;-69
2022/01/24 09:52:47;;;;;;;63.63;28.67;;;;;;;;;;6216646;23;20186;-69
2022/01/24 09:55:17;;;;;;;80.43;30.20;;;;;;;;;;6216612;23;20516;-69
2022/01/24 09:57:47;;;;;;;90.60;33.43;;;;;;;;;;6216588;23;20187;-69
2022/01/24 10:00:19;;;;;;;74.13;30.47;;;;;;;;;;6215099;23;20698;-69
2022/01/24 10:02:50;;;;;;;149.17;80.80;;;;;;;;;;6226656;23;20168;-69
2022/01/24 10:05:22;;;;;;;70.30;34.23;;;;;;;;;;6216862;23;20172;-69
2022/01/24 10:07:53;;;;;;;69.97;27.70;;;;;;;;;;6226597;23;20169;-69
2022/01/24 10:10:45;;;;;;;63.83;29.33;;;;;;;;;;6216685;23;20177;-69
2022/01/24 10:19:02;;;;;;;79.03;36.63;;;;;;;;;;6226531;23;20168;-69
2022/01/24 10:21:50;;;;;;;83.80;35.63;;;;;;;;;;6216728;23;20172;-69
2022/01/24 10:24:33;;;;;;;90.93;40.07;;;;;;;;;;6216502;23;20180;-69
2022/01/24 10:27:28;;;;;;;127.57;42.33;;;;;;;;;;6216850;23;20547;-69
2022/01/24 10:30:02;;;;;;;101.77;36.13;;;;;;;;;;6216257;23;20275;-69
2022/01/24 10:32:56;;;;;;;77.77;33.47;;;;;;;;;;6190438;23;20167;-69
2022/01/24 10:35:38;;;;;;;81.47;32.67;;;;;;;;;;6212462;23;20191;-69
2022/01/24 10:38:19;;;;;;;67.07;28.30;;;;;;;;;;6189631;23;20608;-69
2022/01/24 10:43:28;;;;;;;72.17;30.60;;;;;;;;;;6226191;23;20175;-69
2022/01/24 10:45:57;;;;;;;113.23;47.57;;;;;;;;;;6216325;23;20230;-69
2022/01/24 10:48:29;;;;;;;73.07;29.90;;;;;;;;;;6216017;23;20186;-69
2022/01/24 10:51:09;;;;;;;63.03;31.13;;;;;;;;;;6216348;23;20178;-69
2022/01/24 10:53:48;;;;;;;69.70;30.53;;;;;;;;;;6216446;23;20503;-69
2022/01/24 10:56:32;;;;;;;54.30;28.07;;;;;;;;;;6216086;23;20168;-69
2022/01/24 10:59:17;;;;;;;62.07;27.63;;;;;;;;;;6216189;23;20227;-69
2022/01/24 11:01:48;;;;;;;87.67;35.53;;;;;;;;;;6216240;23;20165;-69
2022/01/24 11:04:17;;;;;;;85.30;32.73;;;;;;;;;;6189727;23;20688;-69
2022/01/24 11:06:50;;;;;;;74.70;34.23;;;;;;;;;;6216203;23;20183;-69
2022/01/24 11:09:22;;;;;;;88.17;35.30;;;;;;;;;;6216200;23;20172;-69
2022/01/24 11:11:57;;;;;;;77.53;32.83;;;;;;;;;;6216217;23;20168;-69
2022/01/24 11:14:26;;;;;;;59.67;28.43;;;;;;;;;;6216165;23;20246;-69
2022/01/24 11:16:56;;;;;;;67.77;28.93;;;;;;;;;;6216182;23;20215;-69
2022/01/24 11:19:32;;;;;;;66.70;28.67;;;;;;;;;;6216007;23;20253;-69
2022/01/24 11:22:05;;;;;;;59.63;28.90;;;;;;;;;;6216157;23;20168;-69
2022/01/24 11:24:40;;;;;;;58.63;27.93;;;;;;;;;;6216250;23;20248;-69
2022/01/24 11:27:27;;;;;;;52.97;27.10;;;;;;;;;;6215644;23;20620;-69
2022/01/24 11:30:02;;;;;;;58.57;27.67;;;;;;;;;;6215656;23;20203;-69
2022/01/24 11:33:04;;;;;;;58.77;27.37;;;;;;;;;;6225774;23;20168;-69
2022/01/24 11:35:41;;;;;;;56.90;26.40;;;;;;;;;;6197343;23;20183;-69
2022/01/24 11:38:26;;;;;;;57.07;28.33;;;;;;;;;;6216110;23;20195;-69
2022/01/24 11:41:40;;;;;;;57.73;28.00;;;;;;;;;;6225787;23;20525;-69
2022/01/24 11:44:11;;;;;;;57.77;26.73;;;;;;;;;;6215088;23;20624;-69
2022/01/24 11:46:45;;;;;;;57.67;27.20;;;;;;;;;;6216107;23;20217;-70
2022/01/24 11:49:44;;;;;;;73.40;39.70;;;;;;;;;;6199303;23;20465;-65
2022/01/24 11:52:14;;;;;;;59.50;27.37;;;;;;;;;;6216092;23;20223;-67
2022/01/24 11:57:16;;;;;;;75.63;32.30;;;;;;;;;;6225856;23;20168;-65
2022/01/24 11:59:43;;;;;;;63.93;30.27;;;;;;;;;;6215878;23;20192;-69
2022/01/24 12:02:18;;;;;;;106.40;35.83;;;;;;;;;;6189777;23;20211;-68
2022/01/24 12:04:57;;;;;;;64.00;29.00;;;;;;;;;;6215860;23;20168;-69
2022/01/24 12:07:31;;;;;;;68.50;28.83;;;;;;;;;;6215984;23;20179;-66
2022/01/24 12:10:21;;;;;;;58.90;30.47;;;;;;;;;;6217259;23;20211;-69
2022/01/24 12:12:51;;;;;;;82.53;31.20;;;;;;;;;;6217844;23;20175;-70
2022/01/24 12:15:38;;;;;;;78.23;30.83;;;;;;;;;;6202105;23;20591;-70
2022/01/24 12:18:29;;;;;;;56.13;26.53;;;;;;;;;;6217823;23;20172;-69
2022/01/24 12:21:00;;;;;;;55.10;26.37;;;;;;;;;;6217603;23;20202;-69
2022/01/24 12:23:36;;;;;;;55.97;26.50;;;;;;;;;;6226339;23;20168;-68
2022/01/24 12:26:26;;;;;;;52.93;25.73;;;;;;;;;;6217603;23;20169;-69
2022/01/24 12:29:01;;;;;;;55.30;27.37;;;;;;;;;;6226892;23;20164;-70
2022/01/24 12:31:47;;;;;;;52.53;26.40;;;;;;;;;;6217574;23;20168;-66
2022/01/24 12:34:29;;;;;;;56.50;26.33;;;;;;;;;;6217410;23;20198;-66
2022/01/24 12:37:03;;;;;;;61.27;27.30;;;;;;;;;;6217619;23;20481;-65
2022/01/24 12:39:40;;;;;;;66.33;33.53;;;;;;;;;;6217108;23;20247;-66
2022/01/24 12:42:14;;;;;;;531.83;230.87;;;;;;;;;;6217576;23;20172;-66
2022/01/24 12:47:23;;;;;;;125.17;49.27;;;;;;;;;;6217563;23;20180;-68
2022/01/24 12:49:51;;;;;;;204.97;92.70;;;;;;;;;;6217385;23;20169;-69
2022/01/24 12:52:20;;;;;;;65.57;34.60;;;;;;;;;;6217239;23;20247;-67
2022/01/24 12:54:51;;;;;;;58.83;28.90;;;;;;;;;;6217183;23;20262;-66
2022/01/24 12:57:22;;;;;;;60.50;26.73;;;;;;;;;;6227325;23;20169;-67
2022/01/24 13:00:01;;;;;;;69.30;29.67;;;;;;;;;;6217289;23;20188;-66
2022/01/24 13:02:31;;;;;;;70.53;29.07;;;;;;;;;;6227216;23;20174;-67
2022/01/24 13:05:05;;;;;;;68.20;27.97;;;;;;;;;;6217003;23;20180;-67
2022/01/24 13:07:33;;;;;;;78.63;30.23;;;;;;;;;;6191119;23;20217;-68
2022/01/24 13:10:15;;;;;;;73.63;29.87;;;;;;;;;;6217159;23;20190;-70
2022/01/24 13:12:44;;;;;;;59.10;32.37;;;;;;;;;;6217480;23;20512;-68
2022/01/24 13:15:26;;;;;;;64.17;28.10;;;;;;;;;;6191015;23;20184;-67
2022/01/24 13:21:26;;;;;;;55.47;26.00;;;;;;;;;;6111082;23;20206;-69
2022/01/24 13:24:00;;;;;;;56.77;26.43;;;;;;;;;;6193205;23;20623;-70
2022/01/24 13:26:28;;;;;;;60.60;27.83;;;;;;;;;;6217087;23;20407;-66
2022/01/24 13:29:05;;;;;;;72.57;32.20;;;;;;;;;;6216753;23;20184;-66
2022/01/24 13:31:32;;;;;;;81.07;33.40;;;;;;;;;;6213902;23;20254;-65
2022/01/24 13:34:03;;;;;;;60.73;28.60;;;;;;;;;;6216721;23;20187;-66
2022/01/24 13:36:30;;;;;;;96.70;35.37;;;;;;;;;;6217078;23;20180;-65
2022/01/24 13:38:57;;;;;;;83.67;40.33;;;;;;;;;;6216566;23;20203;-67
2022/01/24 13:41:25;;;;;;;189.30;93.53;;;;;;;;;;6216325;23;20215;-65
2022/01/24 13:44:01;;;;;;;93.43;45.77;;;;;;;;;;6216144;23;20184;-64
2022/01/24 13:46:41;;;;;;;203.83;102.40;;;;;;;;;;6225821;23;20168;-66
2022/01/24 13:49:12;;;;;;;61.50;29.67;;;;;;;;;;6216809;23;20168;-65
2022/01/24 13:51:43;;;;;;;61.73;27.67;;;;;;;;;;6226629;23;20247;-64
2022/01/24 13:54:22;;;;;;;69.87;31.67;;;;;;;;;;6226592;23;20235;-65
2022/01/24 13:56:52;;;;;;;96.80;34.00;;;;;;;;;;6226504;23;20222;-64
2022/01/24 13:59:28;;;;;;;78.50;32.20;;;;;;;;;;6216954;23;20180;-65
2022/01/24 14:02:12;;;;;;;73.17;30.70;;;;;;;;;;6189554;23;20200;-64
2022/01/24 14:04:52;;;;;;;66.60;28.73;;;;;;;;;;6226427;23;20201;-64
2022/01/24 14:07:25;;;;;;;61.10;26.63;;;;;;;;;;6213755;23;20252;-67
2022/01/24 14:09:53;;;;;;;66.17;27.90;;;;;;;;;;6216490;23;20195;-67
2022/01/24 14:12:40;;;;;;;55.97;26.70;;;;;;;;;;6216762;23;20180;-67
2022/01/24 14:15:15;;;;;;;59.13;29.17;;;;;;;;;;6215608;23;20213;-66
2022/01/24 14:17:55;;;;;;;71.97;27.93;;;;;;;;;;6216610;23;20171;-66
2022/01/24 14:20:22;;;;;;;74.73;31.57;;;;;;;;;;6216339;23;20523;-66
2022/01/24 14:22:53;;;;;;;63.13;28.37;;;;;;;;;;6215791;23;20507;-67
2022/01/24 14:25:27;;;;;;;81.53;33.77;;;;;;;;;;6226334;23;20172;-68
2022/01/24 14:27:56;;;;;;;61.03;27.67;;;;;;;;;;6223869;23;20235;-65
2022/01/24 14:30:37;;;;;;;62.30;28.50;;;;;;;;;;6215059;23;20204;-67
2022/01/24 14:33:11;;;;;;;71.60;28.47;;;;;;;;;;6225915;23;20495;-65
2022/01/24 14:35:50;;;;;;;247.50;89.40;;;;;;;;;;6224740;23;20178;-67
2022/01/24 14:38:37;;;;;;;72.27;29.23;;;;;;;;;;6216416;23;20168;-66
2022/01/24 14:41:21;;;;;;;137.43;49.33;;;;;;;;;;6225963;23;20199;-66
2022/01/24 14:46:34;;;;;;;77.67;39.43;;;;;;;;;;6215333;23;20191;-67
2022/01/24 14:49:04;;;;;;;121.40;39.63;;;;;;;;;;6216325;23;20218;-67
2022/01/24 14:51:34;;;;;;;129.27;40.23;;;;;;;;;;6215272;23;20175;-66
2022/01/24 14:54:07;;;;;;;120.10;36.67;;;;;;;;;;6215862;23;20175;-67
2022/01/24 14:56:37;;;;;;;131.03;48.97;;;;;;;;;;6225861;23;20168;-67
2022/01/24 14:59:04;;;;;;;119.57;38.67;;;;;;;;;;6215254;23;20181;-64
2022/01/24 15:01:32;;;;;;;136.00;41.30;;;;;;;;;;6215259;23;20646;-65
2022/01/24 15:04:00;;;;;;;179.47;47.17;;;;;;;;;;6215815;23;20632;-66
2022/01/24 15:06:27;;;;;;;160.27;46.03;;;;;;;;;;6215315;23;20180;-66
2022/01/24 15:09:13;;;;;;;94.63;34.40;;;;;;;;;;6215829;23;20168;-65
2022/01/24 15:11:42;;;;;;;94.23;33.37;;;;;;;;;;6216005;23;20184;-64
2022/01/24 15:14:16;;;;;;;147.83;53.33;;;;;;;;;;6215217;23;20544;-65
2022/01/24 15:16:55;;;;;;;307.30;94.33;;;;;;;;;;6225668;23;20199;-67
2022/01/24 15:27:13;;;;;;;231.13;66.37;;;;;;;;;;6215913;23;20203;-67
2022/01/24 15:29:41;;;;;;;129.73;46.23;;;;;;;;;;6214819;23;20203;-66
2022/01/24 15:32:28;;;;;;;124.00;42.90;;;;;;;;;;6193803;23;20175;-68
2022/01/24 15:34:55;;;;;;;119.10;45.73;;;;;;;;;;6215588;23;20204;-66
2022/01/24 15:37:23;;;;;;;147.60;49.70;;;;;;;;;;6214992;23;20243;-68
2022/01/24 15:39:53;;;;;;;100.03;48.80;;;;;;;;;;6215525;23;20203;-69
2022/01/24 15:42:36;;;;;;;96.73;34.13;;;;;;;;;;6215117;23;20557;-70
2022/01/24 15:50:14;;;;;;;102.23;37.23;;;;;;;;;;6216367;23;20258;-69
2022/01/24 15:52:41;;;;;;;125.47;38.53;;;;;;;;;;6217213;23;20194;-70
2022/01/24 15:55:12;;;;;;;93.17;36.53;;;;;;;;;;6191379;23;20230;-67
2022/01/24 15:57:40;;;;;;;123.33;46.33;;;;;;;;;;6216204;23;20179;-68
2022/01/24 16:00:13;;;;;;;155.00;78.40;;;;;;;;;;6216490;23;20685;-68
2022/01/24 16:02:44;;;;;;;89.60;35.70;;;;;;;;;;6217191;23;20187;-67
2022/01/24 16:05:14;;;;;;;75.50;33.47;;;;;;;;;;6191071;23;20172;-67
2022/01/24 16:07:42;;;;;;;101.07;38.17;;;;;;;;;;6217178;23;20187;-68
2022/01/24 16:10:14;;;;;;;129.20;44.60;;;;;;;;;;6190584;23;20646;-68
2022/01/24 16:12:44;;;;;;;95.50;40.17;;;;;;;;;;6226933;23;20191;-68
2022/01/24 16:15:13;;;;;;;131.20;48.53;;;;;;;;;;6216338;23;20180;-71
2022/01/24 16:17:41;;;;;;;88.87;37.70;;;;;;;;;;6217406;23;20239;-71
2022/01/24 16:25:37;;;;;;;76.67;31.87;;;;;;;;;;6217085;23;20175;-67
2022/01/24 16:28:15;;;;;;;77.87;34.43;;;;;;;;;;6217035;23;20172;-67
2022/01/24 16:30:51;;;;;;;80.10;35.60;;;;;;;;;;6218178;23;20208;-65
2022/01/24 16:33:21;;;;;;;72.37;31.03;;;;;;;;;;6226746;23;20175;-68
2022/01/24 16:35:50;;;;;;;106.80;39.50;;;;;;;;;;6190459;23;20203;-68
2022/01/24 16:38:19;;;;;;;119.53;41.57;;;;;;;;;;6216861;23;20180;-67
2022/01/24 16:40:50;;;;;;;90.50;33.43;;;;;;;;;;6216733;23;20208;-67
2022/01/24 16:43:37;;;;;;;76.17;33.30;;;;;;;;;;6225989;23;20507;-66
2022/01/24 16:48:48;;;;;;;65.40;31.77;;;;;;;;;;6226722;23;20195;-66
2022/01/24 16:51:16;;;;;;;80.13;33.47;;;;;;;;;;6216848;23;20180;-64
2022/01/24 16:53:45;;;;;;;82.80;34.20;;;;;;;;;;6216592;23;20207;-68
2022/01/24 16:56:13;;;;;;;72.63;32.53;;;;;;;;;;6216120;23;20611;-68
2022/01/24 16:58:41;;;;;;;89.50;36.67;;;;;;;;;;6189592;23;20247;-72
2022/01/24 17:01:09;;;;;;;69.73;32.10;;;;;;;;;;6189906;23;20706;-69
2022/01/24 17:03:37;;;;;;;67.53;35.23;;;;;;;;;;6190252;23;20226;-72
2022/01/24 17:06:05;;;;;;;109.20;39.00;;;;;;;;;;6216688;23;20251;-71
2022/01/24 17:08:32;;;;;;;88.43;34.07;;;;;;;;;;6216837;23;20238;-71